Time;durP1;ratioP1;P1;durP2;ratioP2;P2;SDS_P1;SDS_P2;PMS_P1;PMS_P2;Temp;Humidity;BMP_temperature;BMP_pressure;BME280_temperature;BME280_humidity;BME280_pressure;Samples;Min_cycle;Max_cycle;Signal;HPM_P1;HPM_P2
2022/04/05 00:02:06;;;;;;;;;15.75;14.00;;;;;9.45;59.37;100783.25;5056956;28;45691;-47
2022/04/05 00:04:31;;;;;;;;;13.25;13.25;;;;;9.41;60.93;100777.34;5055951;28;46027;-47
2022/04/05 00:06:57;;;;;;;;;14.25;12.25;;;;;9.38;61.01;100774.16;5055936;28;45413;-47
2022/04/05 00:09:22;;;;;;;;;12.50;10.25;;;;;9.41;60.58;100787.44;5055992;28;45388;-48
2022/04/05 00:11:48;;;;;;;;;16.75;13.25;;;;;9.29;60.15;100763.38;5056429;28;45393;-51
2022/04/05 00:14:14;;;;;;;;;12.50;11.50;;;;;9.42;60.84;100783.66;5055908;28;45468;-49
2022/04/05 00:16:39;;;;;;;;;13.40;13.00;;;;;9.20;60.85;100754.50;5053484;28;45347;-49
2022/04/05 00:19:05;;;;;;;;;12.00;10.00;;;;;9.31;61.19;100771.38;5056334;28;45460;-48
2022/04/05 00:21:30;;;;;;;;;14.50;13.00;;;;;9.34;61.36;100780.03;5056442;28;45425;-49
2022/04/05 00:23:56;;;;;;;;;13.75;12.00;;;;;9.34;61.72;100784.69;5055687;28;46313;-46
2022/04/05 00:26:21;;;;;;;;;16.50;13.00;;;;;9.08;62.43;100736.94;5056056;28;45237;-48
2022/04/05 00:28:47;;;;;;;;;16.50;14.25;;;;;9.33;62.09;100780.22;5055651;28;45828;-50
2022/04/05 00:31:12;;;;;;;;;18.25;14.75;;;;;9.36;62.44;100782.59;5038596;28;45776;-50
2022/04/05 00:33:38;;;;;;;;;13.00;12.50;;;;;9.34;62.58;100779.22;5055717;28;45346;-49
2022/04/05 00:36:03;;;;;;;;;13.25;11.00;;;;;9.32;62.32;100773.94;5055956;28;45292;-49
2022/04/05 00:38:29;;;;;;;;;15.50;13.50;;;;;9.27;62.04;100764.59;5071351;28;45215;-49
2022/04/05 00:40:54;;;;;;;;;17.00;13.25;;;;;9.33;62.65;100778.34;5056096;28;45722;-49
2022/04/05 00:43:20;;;;;;;;;8.00;8.00;;;;;9.35;62.71;100776.25;5055443;28;46067;-48
2022/04/05 00:45:45;;;;;;;;;12.75;12.75;;;;;9.36;62.47;100777.09;5055969;28;45261;-49
2022/04/05 00:48:11;;;;;;;;;11.00;11.00;;;;;9.28;62.75;100764.41;5055657;28;45285;-46
2022/04/05 00:50:38;;;;;;;;;10.00;9.00;;;;;9.39;62.66;100770.38;5037513;28;45458;-46
2022/04/05 00:53:05;;;;;;;;;13.60;12.80;;;;;9.12;62.98;100738.22;5055246;28;46263;-51
2022/04/05 00:55:31;;;;;;;;;13.40;11.80;;;;;9.02;63.37;100727.63;5055491;28;45302;-50
2022/04/05 00:57:57;;;;;;;;;13.50;11.75;;;;;9.33;64.08;100769.28;5071270;28;45504;-48
2022/04/05 01:00:22;;;;;;;;;12.25;6.25;;;;;9.33;63.21;100777.50;5038264;28;45355;-47
2022/04/05 01:02:48;;;;;;;;;11.25;9.75;;;;;9.27;63.86;100765.47;5020992;28;46906;-50
2022/04/05 01:05:15;;;;;;;;;11.40;11.40;;;;;9.13;64.54;100752.75;5055505;28;45204;-47
2022/04/05 01:07:41;;;;;;;;;13.60;10.40;;;;;9.13;64.78;100739.06;5040084;28;45315;-55
2022/04/05 01:10:07;;;;;;;;;11.75;11.75;;;;;9.19;64.58;100771.94;5017812;28;45536;-50
2022/04/05 01:12:33;;;;;;;;;13.00;12.00;;;;;8.97;65.00;100730.16;5017416;28;45483;-47
2022/04/05 01:14:58;;;;;;;;;11.00;10.50;;;;;9.03;65.19;100736.69;5035055;28;45425;-47
2022/04/05 01:17:24;;;;;;;;;7.75;7.75;;;;;9.21;65.34;100758.91;5035549;28;45457;-48
2022/04/05 01:19:50;;;;;;;;;12.25;11.25;;;;;9.28;64.57;100761.69;5035482;28;45410;-48
2022/04/05 01:22:15;;;;;;;;;15.50;13.75;;;;;9.27;65.21;100754.50;5000877;28;45473;-49
2022/04/05 01:24:41;;;;;;;;;11.75;10.75;;;;;9.28;64.92;100758.09;5009820;28;45486;-48
2022/04/05 01:27:06;;;;;;;;;8.75;8.75;;;;;9.34;64.89;100752.66;5055568;28;45401;-49
2022/04/05 01:29:32;;;;;;;;;12.50;12.50;;;;;9.33;64.83;100753.69;5039915;28;45369;-49
2022/04/05 01:32:03;;;;;;;;;9.00;8.75;;;;;9.31;65.91;100757.69;5058762;28;45363;-48
2022/04/05 01:34:28;;;;;;;;;12.20;11.40;;;;;9.30;65.50;100756.84;5073952;28;45896;-49
2022/04/05 01:36:58;;;;;;;;;14.50;13.00;;;;;9.14;66.14;100738.88;5057409;28;45422;-48
2022/04/05 01:39:26;;;;;;;;;12.20;9.20;;;;;9.16;66.18;100753.19;5058855;28;45430;-47
2022/04/05 01:41:55;;;;;;;;;11.80;11.80;;;;;9.18;66.98;100748.34;5040201;28;46744;-47
2022/04/05 01:44:21;;;;;;;;;12.40;11.40;;;;;9.23;66.20;100750.47;5058181;28;45427;-49
2022/04/05 01:46:47;;;;;;;;;7.00;4.50;;;;;9.25;66.11;100745.66;5057420;28;45275;-50
2022/04/05 01:49:16;;;;;;;;;12.00;12.00;;;;;9.28;65.67;100745.25;5040500;28;45356;-46
2022/04/05 01:51:43;;;;;;;;;11.40;10.80;;;;;9.11;66.37;100705.56;5058193;28;45941;-47
2022/04/05 01:54:09;;;;;;;;;14.40;12.00;;;;;9.21;65.84;100717.84;5058173;28;45484;-49
2022/04/05 01:56:41;;;;;;;;;10.60;10.60;;;;;9.12;65.35;100685.34;5058643;28;45429;-49
2022/04/05 01:59:07;;;;;;;;;19.00;14.60;;;;;9.36;66.74;100736.84;5058586;28;45890;-47
2022/04/05 02:01:32;;;;;;;;;11.75;11.75;;;;;9.29;66.11;100733.22;5058231;28;46171;-49
2022/04/05 02:03:58;;;;;;;;;13.25;12.50;;;;;9.29;66.25;100719.53;5058215;28;45376;-51
2022/04/05 02:06:24;;;;;;;;;16.25;13.75;;;;;9.27;65.96;100721.66;5057677;28;45378;-48
2022/04/05 02:08:50;;;;;;;;;14.60;12.40;;;;;9.31;66.64;100731.16;5004111;28;45412;-48
2022/04/05 02:11:16;;;;;;;;;13.75;11.25;;;;;9.34;66.58;100736.22;5020183;28;45454;-46
2022/04/05 02:13:41;;;;;;;;;15.75;11.50;;;;;9.33;66.55;100736.41;5036674;28;45453;-48
2022/04/05 02:16:07;;;;;;;;;15.50;13.00;;;;;9.18;66.89;100710.00;5020153;28;45376;-48
2022/04/05 02:18:35;;;;;;;;;13.50;12.50;;;;;9.30;66.54;100732.22;5038165;28;45581;-49
2022/04/05 02:21:00;;;;;;;;;11.40;9.80;;;;;9.29;67.15;100732.41;5037556;28;45670;-49
2022/04/05 02:23:26;;;;;;;;;11.00;8.75;;;;;9.27;66.60;100732.59;5020334;28;45362;-48
2022/04/05 02:25:51;;;;;;;;;12.00;12.00;;;;;9.30;67.43;100734.09;4995691;28;49160;-49
2022/04/05 02:28:17;;;;;;;;;11.75;9.50;;;;;9.31;66.78;100731.16;5035728;28;45523;-48
2022/04/05 02:30:42;;;;;;;;;13.75;10.50;;;;;9.32;66.67;100735.59;5035486;28;45494;-48
2022/04/05 02:33:08;;;;;;;;;11.75;11.75;;;;;9.35;66.76;100737.06;5033807;28;45466;-50
2022/04/05 02:35:33;;;;;;;;;11.75;11.75;;;;;9.24;67.40;100719.34;5037658;28;45498;-52
2022/04/05 02:38:00;;;;;;;;;17.25;13.75;;;;;9.31;66.71;100716.59;5020169;28;45403;-50
2022/04/05 02:40:26;;;;;;;;;16.40;13.80;;;;;9.40;66.65;100723.59;5001636;28;45694;-49
2022/04/05 02:42:52;;;;;;;;;16.00;14.00;;;;;9.42;66.21;100723.38;5019503;28;45423;-47
2022/04/05 02:45:17;;;;;;;;;12.50;12.50;;;;;9.40;66.88;100726.31;5037794;28;45245;-51
2022/04/05 02:47:43;;;;;;;;;14.75;14.50;;;;;9.42;67.31;100723.38;5037768;28;45346;-47
2022/04/05 02:50:09;;;;;;;;;16.00;12.50;;;;;9.44;67.10;100721.31;5035849;28;49207;-52
2022/04/05 02:52:35;;;;;;;;;13.60;11.60;;;;;9.46;67.53;100719.19;5037302;28;45399;-49
2022/04/05 02:55:00;;;;;;;;;14.00;13.50;;;;;9.41;67.71;100708.88;5037333;28;45225;-50
2022/04/05 02:57:26;;;;;;;;;15.25;12.00;;;;;9.25;67.45;100684.56;5044372;28;45337;-50
2022/04/05 02:59:51;;;;;;;;;13.25;11.75;;;;;9.38;67.55;100712.00;5073138;28;45437;-47
2022/04/05 03:02:17;;;;;;;;;14.75;12.75;;;;;9.38;67.56;100713.91;5056348;28;45359;-48
2022/04/05 03:04:42;;;;;;;;;11.00;11.00;;;;;9.38;67.96;100711.16;5057935;28;45484;-47
2022/04/05 03:07:08;;;;;;;;;15.50;13.00;;;;;9.33;66.96;100709.03;5057571;28;45365;-46
2022/04/05 03:09:33;;;;;;;;;12.00;12.00;;;;;9.41;67.23;100705.25;5073168;28;45422;-47
2022/04/05 03:11:59;;;;;;;;;12.25;12.25;;;;;9.28;67.84;100690.47;5056189;28;45437;-49
2022/04/05 03:14:24;;;;;;;;;12.75;11.75;;;;;9.44;67.97;100702.97;5057779;28;45355;-48
2022/04/05 03:16:50;;;;;;;;;15.50;12.00;;;;;9.35;68.06;100695.97;5039424;28;45430;-48
2022/04/05 03:19:15;;;;;;;;;12.25;12.00;;;;;9.39;68.44;100708.19;5038996;28;48979;-49
2022/04/05 03:21:41;;;;;;;;;13.00;12.25;;;;;9.37;69.21;100704.81;5057108;28;45374;-47
2022/04/05 03:24:06;;;;;;;;;11.25;11.25;;;;;9.34;68.74;100706.09;5039582;28;45425;-52
2022/04/05 03:26:32;;;;;;;;;14.75;14.75;;;;;9.33;68.35;100701.66;5057675;28;45386;-48
2022/04/05 03:28:57;;;;;;;;;15.25;13.50;;;;;9.14;68.05;100667.69;5038491;28;47884;-48
2022/04/05 03:31:23;;;;;;;;;13.00;12.00;;;;;9.35;68.77;100702.28;5056899;28;45363;-47
2022/04/05 03:33:49;;;;;;;;;12.75;10.75;;;;;9.30;69.04;100702.09;5057270;28;45371;-46
2022/04/05 03:36:14;;;;;;;;;14.25;13.00;;;;;9.19;70.31;100699.91;5057457;28;45371;-48
2022/04/05 03:38:40;;;;;;;;;12.50;11.00;;;;;9.05;71.65;100697.13;5056941;28;45676;-48
2022/04/05 03:41:05;;;;;;;;;11.50;9.00;;;;;8.99;70.38;100669.69;5057115;28;45442;-52
2022/04/05 03:43:31;;;;;;;;;12.00;12.00;;;;;8.91;70.14;100652.41;5056676;28;45168;-47
2022/04/05 03:45:56;;;;;;;;;9.50;9.50;;;;;9.20;70.56;100693.38;5072873;28;45192;-48
2022/04/05 03:48:22;;;;;;;;;14.50;12.00;;;;;9.19;70.14;100698.00;5055498;28;48307;-45
2022/04/05 03:50:47;;;;;;;;;11.25;8.50;;;;;9.20;70.31;100699.72;5056758;28;45374;-50
2022/04/05 03:53:13;;;;;;;;;17.25;12.75;;;;;9.17;70.58;100686.41;5056857;28;45446;-52
2022/04/05 03:55:38;;;;;;;;;14.50;13.25;;;;;9.01;71.49;100671.19;5056860;28;45734;-51
2022/04/05 03:58:04;;;;;;;;;16.25;12.50;;;;;9.11;71.85;100689.16;5054363;28;46494;-52
2022/04/05 04:00:30;;;;;;;;;11.50;11.00;;;;;9.03;71.70;100679.19;5026999;28;45363;-48
2022/04/05 04:02:55;;;;;;;;;11.25;8.75;;;;;9.07;72.04;100677.72;5038707;28;45401;-51
2022/04/05 04:05:21;;;;;;;;;11.50;11.50;;;;;9.03;72.75;100687.41;5056606;28;45401;-51
2022/04/05 04:07:49;;;;;;;;;12.00;9.75;;;;;9.03;72.31;100677.28;5037981;28;47412;-49
2022/04/05 04:10:15;;;;;;;;;13.20;11.00;;;;;9.06;71.89;100676.91;5056167;28;45481;-50
2022/04/05 04:12:41;;;;;;;;;12.00;12.00;;;;;9.15;72.34;100684.94;5072057;28;45404;-51
2022/04/05 04:15:07;;;;;;;;;9.25;9.25;;;;;9.16;71.97;100675.66;5056585;28;45448;-49
2022/04/05 04:17:32;;;;;;;;;14.00;11.60;;;;;9.14;72.49;100675.88;5038250;28;46251;-50
2022/04/05 04:19:58;;;;;;;;;15.25;15.25;;;;;9.19;72.80;100680.75;5055678;28;45400;-47
2022/04/05 04:22:23;;;;;;;;;11.25;9.00;;;;;9.17;72.18;100685.56;5056160;28;45397;-48
2022/04/05 04:24:49;;;;;;;;;12.25;9.50;;;;;9.00;72.63;100644.84;5056458;28;45639;-51
2022/04/05 04:27:15;;;;;;;;;10.00;9.00;;;;;9.22;72.22;100683.06;5055738;28;46191;-47
2022/04/05 04:29:40;;;;;;;;;9.25;9.25;;;;;9.16;72.54;100668.31;5055784;28;45339;-50
2022/04/05 04:32:06;;;;;;;;;10.00;10.00;;;;;9.23;72.62;100668.31;5054743;28;45417;-47
2022/04/05 04:34:32;;;;;;;;;9.25;9.25;;;;;9.22;72.16;100672.09;5054875;28;45527;-47
2022/04/05 04:36:57;;;;;;;;;14.50;12.25;;;;;9.22;72.00;100672.09;5055429;28;45651;-48
2022/04/05 04:39:23;;;;;;;;;16.00;12.75;;;;;9.05;72.01;100650.56;5055921;28;45161;-47
2022/04/05 04:41:49;;;;;;;;;10.75;10.75;;;;;9.05;72.99;100652.47;5055742;28;45228;-49
2022/04/05 04:44:14;;;;;;;;;11.00;10.00;;;;;9.19;72.78;100667.88;5056209;28;45196;-51
2022/04/05 04:46:40;;;;;;;;;12.00;11.50;;;;;9.22;72.86;100672.09;5055571;28;46276;-49
2022/04/05 04:49:05;;;;;;;;;11.50;11.50;;;;;9.21;73.65;100681.38;5055781;28;45390;-52
2022/04/05 04:51:31;;;;;;;;;11.50;11.50;;;;;9.23;73.36;100676.53;5037628;28;45249;-51
2022/04/05 04:53:56;;;;;;;;;11.75;11.25;;;;;9.22;72.76;100677.59;5055678;28;45391;-49
2022/04/05 04:56:22;;;;;;;;;12.75;11.50;;;;;9.25;72.26;100674.47;5055671;28;45561;-48
2022/04/05 04:58:47;;;;;;;;;11.50;11.50;;;;;9.24;73.05;100670.03;5055669;28;45306;-47
2022/04/05 05:01:14;;;;;;;;;14.80;12.00;;;;;9.24;72.78;100674.66;5031626;28;46056;-48
2022/04/05 05:03:40;;;;;;;;;14.25;14.00;;;;;9.26;72.50;100676.13;5033923;28;45545;-47
2022/04/05 05:06:05;;;;;;;;;11.75;11.25;;;;;9.18;74.84;100665.38;5033597;28;46729;-49
2022/04/05 05:08:32;;;;;;;;;12.75;11.75;;;;;9.02;73.73;100631.81;5047362;28;45450;-47
2022/04/05 05:10:57;;;;;;;;;10.60;10.20;;;;;9.24;73.82;100667.28;5053285;28;45318;-49
2022/04/05 05:13:23;;;;;;;;;9.50;9.50;;;;;9.19;73.07;100654.19;5038011;28;45654;-49
2022/04/05 05:15:48;;;;;;;;;17.00;11.50;;;;;9.05;72.84;100625.94;5070929;28;47225;-52
2022/04/05 05:18:16;;;;;;;;;18.75;14.25;;;;;9.30;73.06;100662.88;5055200;28;45330;-50
2022/04/05 05:20:41;;;;;;;;;11.60;11.60;;;;;9.20;73.44;100650.44;5055366;28;45430;-49
2022/04/05 05:23:07;;;;;;;;;12.25;11.75;;;;;9.21;72.88;100665.81;5037416;28;45586;-50
2022/04/05 05:25:32;;;;;;;;;14.50;12.25;;;;;9.30;73.67;100666.47;5055216;28;45976;-48
2022/04/05 05:27:58;;;;;;;;;14.25;14.25;;;;;9.30;73.73;100673.84;5054876;28;45499;-48
2022/04/05 05:30:23;;;;;;;;;10.00;10.00;;;;;9.33;73.07;100667.94;5070725;28;45453;-50
2022/04/05 05:32:49;;;;;;;;;13.00;12.50;;;;;9.28;73.42;100656.78;5054809;28;45373;-50
2022/04/05 05:35:18;;;;;;;;;11.20;11.20;;;;;9.17;73.64;100644.50;5055005;28;46209;-50
2022/04/05 05:37:44;;;;;;;;;16.60;14.80;;;;;9.33;73.56;100673.41;5054823;28;45395;-48
2022/04/05 05:40:10;;;;;;;;;25.25;21.50;;;;;9.33;74.67;100668.78;5055193;28;45275;-50
2022/04/05 05:42:57;;;;;;;;;20.20;18.40;;;;;9.32;73.90;100663.50;5054815;28;45306;-48
2022/04/05 05:45:23;;;;;;;;;15.00;13.60;;;;;9.34;73.60;100661.44;5044224;28;45520;-49
2022/04/05 05:47:49;;;;;;;;;16.25;13.75;;;;;9.29;74.25;100651.06;5070218;28;45517;-48
2022/04/05 05:50:15;;;;;;;;;13.00;13.00;;;;;9.35;74.60;100665.84;5070721;28;45404;-48
2022/04/05 05:52:41;;;;;;;;;13.40;12.40;;;;;9.31;73.97;100657.22;5054862;28;45425;-50
2022/04/05 05:55:08;;;;;;;;;18.20;18.20;;;;;9.35;73.91;100660.38;5054371;28;46136;-50
2022/04/05 05:57:35;;;;;;;;;12.20;11.00;;;;;9.38;74.50;100670.06;5072340;27;45689;-49
2022/04/05 06:00:02;;;;;;;;;14.00;13.00;;;;;9.34;74.64;100666.91;5087373;27;45853;-48
2022/04/05 06:02:27;;;;;;;;;12.20;12.20;;;;;9.27;74.12;100664.13;5054763;28;45382;-48
2022/04/05 06:04:53;;;;;;;;;12.75;12.50;;;;;9.38;74.38;100686.50;5054549;28;46202;-48
2022/04/05 06:07:18;;;;;;;;;11.00;11.00;;;;;9.33;74.79;100670.66;5054323;28;45485;-49
2022/04/05 06:09:44;;;;;;;;;15.75;13.00;;;;;9.39;73.95;100686.28;5054859;28;45372;-48
2022/04/05 06:12:09;;;;;;;;;11.00;11.00;;;;;9.36;73.74;100683.97;5087379;27;45384;-47
2022/04/05 06:14:35;;;;;;;;;13.25;12.75;;;;;9.39;74.65;100686.28;5054748;28;46123;-46
2022/04/05 06:17:00;;;;;;;;;10.00;10.00;;;;;9.41;74.09;100688.81;5056453;28;45795;-49
2022/04/05 06:19:26;;;;;;;;;11.25;11.25;;;;;9.45;73.96;100693.69;5057628;28;45434;-49
2022/04/05 06:21:51;;;;;;;;;12.00;12.00;;;;;9.45;74.78;100692.84;5057955;28;45359;-49
2022/04/05 06:24:19;;;;;;;;;11.75;11.00;;;;;9.03;75.21;100638.13;5057831;28;45727;-46
2022/04/05 06:26:44;;;;;;;;;8.60;8.60;;;;;9.40;74.27;100692.63;5090077;27;45303;-50
2022/04/05 06:29:10;;;;;;;;;9.50;9.00;;;;;9.42;75.11;100712.44;5057499;28;45461;-49
2022/04/05 06:31:35;;;;;;;;;14.75;12.00;;;;;9.40;74.78;100695.34;5090127;27;45519;-46
2022/04/05 06:34:02;;;;;;;;;11.25;9.75;;;;;9.48;75.50;100708.88;5056375;28;45356;-46
2022/04/05 06:36:29;;;;;;;;;12.20;11.80;;;;;9.46;75.22;100710.97;5057469;28;45404;-48
2022/04/05 06:38:54;;;;;;;;;10.80;10.80;;;;;9.49;75.61;100711.41;5057920;28;45480;-50
2022/04/05 06:41:20;;;;;;;;;12.00;11.00;;;;;9.46;75.51;100716.47;5057892;28;45407;-48
2022/04/05 06:43:46;;;;;;;;;14.50;13.00;;;;;9.22;75.16;100667.50;5057068;28;46968;-50
2022/04/05 06:46:16;;;;;;;;;13.75;10.75;;;;;9.53;75.45;100705.50;5057626;28;45271;-50
2022/04/05 06:48:41;;;;;;;;;10.20;10.20;;;;;9.40;75.31;100692.63;5055968;28;45414;-49
2022/04/05 06:51:07;;;;;;;;;14.00;13.25;;;;;9.57;75.77;100713.13;5057653;28;45484;-47
2022/04/05 06:53:32;;;;;;;;;13.50;12.50;;;;;9.58;75.74;100706.59;5057259;28;45986;-47
2022/04/05 06:55:58;;;;;;;;;11.00;9.00;;;;;9.47;76.40;100707.19;5057111;28;45514;-46
2022/04/05 06:58:24;;;;;;;;;13.20;13.20;;;;;9.57;76.26;100706.78;5057329;28;45324;-47
2022/04/05 07:00:49;;;;;;;;;12.50;9.75;;;;;9.59;75.66;100713.75;5058046;28;45290;-48
2022/04/05 07:03:15;;;;;;;;;10.75;8.25;;;;;9.62;75.70;100704.28;5057429;28;45972;-49
2022/04/05 07:05:40;;;;;;;;;12.00;11.75;;;;;9.36;76.06;100651.94;5039316;28;45396;-51
2022/04/05 07:08:06;;;;;;;;;12.00;11.00;;;;;9.66;76.10;100691.84;5073002;28;45399;-51
2022/04/05 07:10:32;;;;;;;;;13.00;13.00;;;;;9.74;76.13;100704.53;5057632;28;45397;-49
2022/04/05 07:12:57;;;;;;;;;10.25;8.00;;;;;9.49;75.64;100673.06;5072848;28;46625;-48
2022/04/05 07:15:23;;;;;;;;;13.25;12.00;;;;;9.75;75.78;100695.25;5057450;28;45365;-49
2022/04/05 07:17:48;;;;;;;;;9.00;9.00;;;;;9.74;76.19;100696.28;5057336;28;45245;-49
2022/04/05 07:20:14;;;;;;;;;10.00;10.00;;;;;9.77;75.48;100704.94;5073411;28;45411;-53
2022/04/05 07:22:47;;;;;;;;;10.75;10.75;;;;;9.82;75.96;100698.84;5057032;28;46177;-51
2022/04/05 07:25:12;;;;;;;;;9.80;9.80;;;;;9.69;76.00;100671.41;5072989;28;45493;-51
2022/04/05 07:27:38;;;;;;;;;11.25;11.25;;;;;9.90;75.49;100692.31;5056671;28;45387;-49
2022/04/05 07:30:04;;;;;;;;;11.25;9.00;;;;;9.89;75.76;100679.66;5025333;28;45695;-47
2022/04/05 07:32:40;;;;;;;;;14.00;11.00;;;;;9.86;75.73;100675.44;4987313;27;45652;-49
2022/04/05 07:35:06;;;;;;;;;11.80;9.00;;;;;9.98;75.42;100691.28;5039062;28;45520;-48
2022/04/05 07:37:31;;;;;;;;;8.40;8.40;;;;;10.00;75.35;100690.03;5057112;28;45421;-50
2022/04/05 07:40:00;;;;;;;;;12.50;9.50;;;;;10.04;75.56;100693.19;5057251;28;45339;-52
2022/04/05 07:42:26;;;;;;;;;13.20;11.40;;;;;10.04;74.97;100695.94;5038526;28;47280;-51
2022/04/05 07:44:52;;;;;;;;;11.80;9.20;;;;;10.01;75.81;100697.19;5026258;28;47217;-54
2022/04/05 07:47:17;;;;;;;;;9.50;9.25;;;;;9.96;75.51;100696.97;5042259;28;45470;-52
2022/04/05 07:49:43;;;;;;;;;13.75;11.50;;;;;10.02;76.06;100701.63;5048622;28;45947;-53
2022/04/05 07:52:09;;;;;;;;;8.75;8.75;;;;;10.04;76.00;100699.50;5034394;28;46401;-50
2022/04/05 07:54:34;;;;;;;;;13.50;12.00;;;;;10.09;75.93;100704.34;5034215;28;45794;-50
2022/04/05 07:57:02;;;;;;;;;13.00;13.00;;;;;10.15;75.38;100699.94;5052022;28;45390;-50
2022/04/05 07:59:27;;;;;;;;;13.00;12.00;;;;;10.15;76.62;100703.50;5051464;28;45402;-48
2022/04/05 08:01:53;;;;;;;;;11.75;9.75;;;;;10.13;76.32;100696.53;5052345;28;45899;-50
2022/04/05 08:04:18;;;;;;;;;13.00;13.00;;;;;10.23;75.52;100702.47;5050629;28;45378;-52
2022/04/05 08:06:44;;;;;;;;;12.50;11.50;;;;;10.27;76.15;100691.91;5051838;28;45971;-54
2022/04/05 08:09:09;;;;;;;;;11.00;10.50;;;;;10.10;76.10;100664.06;5033972;28;45526;-48
2022/04/05 08:11:35;;;;;;;;;18.50;14.75;;;;;10.29;75.01;100687.91;5050589;28;45441;-49
2022/04/05 08:14:01;;;;;;;;;18.00;14.75;;;;;10.36;75.19;100689.81;5033724;28;45881;-48
2022/04/05 08:16:27;;;;;;;;;14.00;11.75;;;;;10.41;75.07;100699.09;5066811;28;45718;-49
2022/04/05 08:18:52;;;;;;;;;8.75;8.75;;;;;10.41;75.32;100693.59;5050420;28;45861;-52
2022/04/05 08:21:18;;;;;;;;;12.25;12.00;;;;;10.44;75.68;100712.44;5051360;28;46318;-46
2022/04/05 08:23:44;;;;;;;;;17.60;13.80;;;;;10.39;75.28;100706.69;5050458;28;45503;-52
2022/04/05 08:26:10;;;;;;;;;12.25;10.25;;;;;10.37;75.31;100702.47;5032269;28;45503;-49
2022/04/05 08:28:35;;;;;;;;;12.25;12.00;;;;;10.44;75.81;100717.91;5050173;28;45370;-49
2022/04/05 08:31:01;;;;;;;;;9.50;9.50;;;;;10.48;76.05;100712.00;5051822;28;45667;-49
2022/04/05 08:33:27;;;;;;;;;12.25;11.50;;;;;10.49;75.83;100710.94;5049602;28;45401;-51
2022/04/05 08:35:54;;;;;;;;;14.40;14.40;;;;;10.31;75.42;100685.78;5050454;28;45482;-48
2022/04/05 08:38:19;;;;;;;;;20.00;15.60;;;;;10.46;75.19;100706.69;5024420;28;45683;-46
2022/04/05 08:40:45;;;;;;;;;16.00;13.00;;;;;10.47;76.24;100705.69;5027687;28;46288;-47
2022/04/05 08:43:10;;;;;;;;;13.75;12.75;;;;;10.48;75.99;100715.59;5050200;28;45770;-47
2022/04/05 08:45:36;;;;;;;;;14.75;14.75;;;;;10.12;77.71;100660.06;5043600;28;46221;-48
2022/04/05 08:48:04;;;;;;;;;15.50;12.50;;;;;10.16;77.24;100664.06;5048884;28;45569;-48
2022/04/05 08:50:31;;;;;;;;;13.60;12.60;;;;;10.25;77.17;100683.91;5030943;28;47131;-52
2022/04/05 08:52:59;;;;;;;;;14.20;12.80;;;;;10.11;76.77;100663.88;5049386;28;45686;-45
2022/04/05 08:55:25;;;;;;;;;19.00;15.00;;;;;10.37;77.12;100703.31;5048980;28;45715;-50
2022/04/05 08:57:51;;;;;;;;;13.50;11.50;;;;;10.33;77.40;100693.81;5050694;28;45580;-48
2022/04/05 09:00:21;;;;;;;;;18.50;15.25;;;;;10.43;77.01;100694.28;5046924;28;46186;-49
2022/04/05 09:02:54;;;;;;;;;14.40;11.20;;;;;10.48;76.76;100712.84;5048346;28;45787;-47
2022/04/05 09:05:44;;;;;;;;;15.40;14.00;;;;;10.51;77.30;100714.31;5049849;28;45734;-50
2022/04/05 09:08:17;;;;;;;;;21.40;14.20;;;;;10.40;77.09;100685.56;5049089;28;45457;-54
2022/04/05 09:10:49;;;;;;;;;14.00;11.40;;;;;10.46;77.49;100684.75;5049211;28;45654;-52
2022/04/05 09:13:17;;;;;;;;;11.00;9.80;;;;;10.58;76.21;100704.19;5049584;28;45873;-49
2022/04/05 09:15:44;;;;;;;;;15.20;13.60;;;;;10.61;76.82;100709.22;5032276;28;45446;-48
2022/04/05 09:18:10;;;;;;;;;13.80;13.40;;;;;10.41;76.81;100659.84;5050716;28;45881;-48
2022/04/05 09:20:46;;;;;;;;;13.75;13.75;;;;;10.68;76.76;100695.50;5064239;28;46097;-55
2022/04/05 09:23:24;;;;;;;;;16.60;12.60;;;;;10.74;76.64;100702.91;5050281;28;45932;-55
2022/04/05 09:25:55;;;;;;;;;11.60;10.00;;;;;10.68;76.55;100684.53;5049650;28;45663;-50
2022/04/05 09:28:38;;;;;;;;;12.00;10.80;;;;;10.81;76.33;100708.34;5050542;28;45437;-50
2022/04/05 09:31:05;;;;;;;;;12.80;12.20;;;;;10.68;76.12;100671.63;5032265;28;45911;-53
2022/04/05 09:33:32;;;;;;;;;19.00;14.00;;;;;10.88;75.95;100703.69;5032638;28;45770;-49
2022/04/05 09:36:10;;;;;;;;;13.80;12.80;;;;;10.87;76.27;100713.00;5048867;28;45425;-50
2022/04/05 09:38:36;;;;;;;;;15.80;12.60;;;;;10.88;76.90;100713.84;4999683;28;49522;-49
2022/04/05 09:41:16;;;;;;;;;14.00;13.20;;;;;10.65;76.47;100679.47;5047407;28;45446;-51
2022/04/05 09:44:11;;;;;;;;;15.00;14.20;;;;;10.95;75.94;100710.00;5049989;28;45711;-50
2022/04/05 09:46:36;;;;;;;;;15.00;12.40;;;;;11.04;76.25;100718.03;5036775;28;45918;-51
2022/04/05 09:49:11;;;;;;;;;15.00;11.00;;;;;11.12;75.99;100715.03;5031568;28;45398;-51
2022/04/05 09:51:44;;;;;;;;;19.00;16.40;;;;;11.15;76.33;100724.75;5034763;28;46999;-49
2022/04/05 09:54:29;;;;;;;;;14.00;11.40;;;;;11.12;76.15;100710.38;5036051;28;45854;-51
2022/04/05 09:56:59;;;;;;;;;12.40;11.80;;;;;11.08;76.00;100705.53;5036386;28;45456;-51
2022/04/05 09:59:25;;;;;;;;;14.20;12.40;;;;;11.19;75.90;100707.63;5035178;28;45435;-49
2022/04/05 10:01:52;;;;;;;;;13.00;13.00;;;;;11.24;75.85;100706.97;5052319;28;46128;-49
2022/04/05 10:04:17;;;;;;;;;9.60;9.60;;;;;11.29;75.76;100700.81;5068588;28;45520;-48
2022/04/05 10:06:46;;;;;;;;;15.00;11.75;;;;;11.33;75.27;100705.66;5053065;28;45528;-54
2022/04/05 10:09:15;;;;;;;;;9.00;9.00;;;;;11.34;75.42;100706.50;5068699;28;45530;-48
2022/04/05 10:11:41;;;;;;;;;15.00;13.40;;;;;11.33;76.33;100704.81;5053361;28;45942;-48
2022/04/05 10:14:09;;;;;;;;;14.00;12.80;;;;;11.37;75.94;100706.91;5051340;28;45844;-47
2022/04/05 10:16:35;;;;;;;;;16.40;14.00;;;;;11.42;76.00;100709.00;5035226;28;45891;-47
2022/04/05 10:19:04;;;;;;;;;11.75;10.00;;;;;11.38;75.46;100685.78;5053260;28;45512;-49
2022/04/05 10:21:30;;;;;;;;;13.20;12.00;;;;;11.44;76.06;100701.41;5015405;28;46636;-49
2022/04/05 10:23:57;;;;;;;;;11.60;10.00;;;;;11.47;75.67;100703.69;5025870;28;46506;-50
2022/04/05 10:26:28;;;;;;;;;19.20;14.80;;;;;11.19;74.96;100668.31;5034902;28;45517;-51
2022/04/05 10:28:55;;;;;;;;;10.60;10.60;;;;;11.43;76.06;100704.34;5035042;28;45980;-53
2022/04/05 10:31:24;;;;;;;;;13.80;13.40;;;;;11.50;76.32;100702.41;5045538;28;46344;-51
2022/04/05 10:33:50;;;;;;;;;15.40;13.00;;;;;11.44;75.50;100711.53;5035704;28;45525;-53
2022/04/05 10:36:21;;;;;;;;;13.75;12.50;;;;;11.44;75.52;100701.41;5035837;28;46014;-52
2022/04/05 10:39:17;;;;;;;;;12.80;10.60;;;;;11.41;75.98;100712.81;5010200;28;45466;-56
2022/04/05 10:41:44;;;;;;;;;13.00;11.40;;;;;11.42;75.54;100703.50;5027578;28;47470;-49
2022/04/05 10:44:16;;;;;;;;;13.80;12.80;;;;;11.45;76.19;100714.06;5035930;28;45399;-48
2022/04/05 10:46:51;;;;;;;;;12.80;10.20;;;;;11.49;75.26;100709.81;5054818;28;46006;-49
2022/04/05 10:49:37;;;;;;;;;11.60;9.80;;;;;11.55;75.61;100707.25;5056841;28;45382;-53
2022/04/05 10:52:15;;;;;;;;;9.20;7.20;;;;;11.51;75.83;100699.44;5055537;28;45552;-55
2022/04/05 10:55:06;;;;;;;;;10.40;10.40;;;;;11.62;75.00;100708.03;5056748;28;45420;-48
2022/04/05 10:57:35;;;;;;;;;14.60;9.40;;;;;11.65;74.96;100700.19;5044139;28;45567;-52
2022/04/05 11:00:12;;;;;;;;;12.40;10.40;;;;;11.65;75.43;100694.72;5056535;28;45406;-55
2022/04/05 11:02:39;;;;;;;;;10.60;8.60;;;;;11.69;75.22;100694.28;5039163;28;45421;-50
2022/04/05 11:05:25;;;;;;;;;12.00;9.00;;;;;11.68;75.19;100685.19;5037652;28;45447;-49
2022/04/05 11:07:53;;;;;;;;;12.80;11.00;;;;;11.63;75.14;100687.78;5056207;28;45441;-49
2022/04/05 11:10:26;;;;;;;;;9.00;8.00;;;;;11.62;75.76;100691.56;5036357;28;45500;-49
2022/04/05 11:13:03;;;;;;;;;14.00;10.80;;;;;11.34;75.64;100649.66;5038384;28;47599;-48
2022/04/05 11:15:42;;;;;;;;;10.20;10.20;;;;;11.65;75.33;100688.38;5056343;28;45428;-49
2022/04/05 11:18:09;;;;;;;;;14.00;10.40;;;;;11.64;75.84;100693.03;5056452;28;45742;-48